Time;durP1;ratioP1;P1;durP2;ratioP2;P2;SDS_P1;SDS_P2;PMS_P1;PMS_P2;Temp;Humidity;BMP_temperature;BMP_pressure;BME280_temperature;BME280_humidity;BME280_pressure;Samples;Min_cycle;Max_cycle;Signal;HPM_P1;HPM_P2
2023/12/22 00:01:22;;;;;;;;;;;;;;;11.24;50.58;98016.97;4914744;28;98458;-68
2023/12/22 00:03:49;;;;;;;;;;;;;;;11.22;50.44;98016.50;4925104;28;102912;-65
2023/12/22 00:06:15;;;;;;;;;;;;;;;11.23;50.41;98015.38;4924550;28;99438;-69
2023/12/22 00:08:42;;;;;;;;;;;;;;;11.23;50.42;98015.38;4910112;28;98203;-69
2023/12/22 00:11:08;;;;;;;;;;;;;;;11.24;50.46;98010.81;4909753;28;99770;-65
2023/12/22 00:13:34;;;;;;;;;;;;;;;11.25;50.52;98015.06;4925281;28;104511;-69
2023/12/22 00:16:00;;;;;;;;;;;;;;;11.24;50.49;98014.28;4900792;28;98533;-65
2023/12/22 00:18:27;;;;;;;;;;;;;;;11.25;50.49;98020.47;4922015;28;98476;-68
2023/12/22 00:20:53;;;;;;;;;;;;;;;11.24;50.37;98014.28;4918394;28;97937;-68
2023/12/22 00:23:19;;;;;;;;;;;;;;;11.23;50.33;97980.31;4921621;28;98071;-68
2023/12/22 00:25:45;;;;;;;;;;;;;;;11.23;50.24;97996.50;4941369;28;127071;-68
2023/12/22 00:28:10;;;;;;;;;;;;;;;11.23;50.26;98018.06;4919940;28;122748;-69
2023/12/22 00:30:36;;;;;;;;;;;;;;;11.23;50.45;98028.88;4892940;28;99680;-66
2023/12/22 00:33:03;;;;;;;;;;;;;;;11.23;50.27;98020.78;4929890;28;127005;-65
2023/12/22 00:35:29;;;;;;;;;;;;;;;11.23;50.32;98017.28;4937259;28;98132;-65
2023/12/22 00:37:55;;;;;;;;;;;;;;;11.23;50.34;98001.13;4939955;28;98304;-65
2023/12/22 00:40:21;;;;;;;;;;;;;;;11.22;50.51;97996.84;4888007;28;98248;-68
2023/12/22 00:42:47;;;;;;;;;;;;;;;11.22;50.46;98018.41;4920259;28;99760;-68
2023/12/22 00:45:13;;;;;;;;;;;;;;;11.21;50.42;98014.94;4903003;28;99773;-69
2023/12/22 00:47:39;;;;;;;;;;;;;;;11.21;50.37;98014.94;4927352;28;101056;-69
2023/12/22 00:50:06;;;;;;;;;;;;;;;11.20;50.45;98024.16;4942647;28;109892;-69
2023/12/22 00:52:32;;;;;;;;;;;;;;;11.21;50.37;98003.38;4923920;28;101062;-69
2023/12/22 00:54:58;;;;;;;;;;;;;;;11.20;50.44;98015.25;4936648;28;98205;-69
2023/12/22 00:57:24;;;;;;;;;;;;;;;11.20;50.48;98009.84;4934006;28;124007;-69
2023/12/22 00:59:50;;;;;;;;;;;;;;;11.19;50.38;98008.28;4915460;28;98539;-69
2023/12/22 01:02:16;;;;;;;;;;;;;;;11.19;50.62;98016.38;4904480;28;103159;-65
2023/12/22 01:04:42;;;;;;;;;;;;;;;11.18;50.41;98017.50;4922741;28;98201;-69
2023/12/22 01:07:09;;;;;;;;;;;;;;;11.16;50.55;98034.03;4926070;28;97973;-65
2023/12/22 01:09:37;;;;;;;;;;;;;;;11.16;50.23;98025.94;4908879;28;98360;-69
2023/12/22 01:12:04;;;;;;;;;;;;;;;11.15;50.40;98035.13;4942871;28;98241;-65
2023/12/22 01:14:30;;;;;;;;;;;;;;;11.13;50.42;98067.03;4920939;28;99298;-68
2023/12/22 01:16:56;;;;;;;;;;;;;;;11.12;50.22;98087.03;4943416;28;98363;-65
2023/12/22 01:19:22;;;;;;;;;;;;;;;11.11;50.25;98085.44;4909678;28;99578;-65
2023/12/22 01:21:49;;;;;;;;;;;;;;;11.10;50.27;98107.34;4907658;28;98094;-65
2023/12/22 01:24:15;;;;;;;;;;;;;;;11.10;50.30;98118.13;4936694;28;98011;-69
2023/12/22 01:26:41;;;;;;;;;;;;;;;11.08;50.44;98121.13;4940870;28;98556;-65
2023/12/22 01:29:07;;;;;;;;;;;;;;;11.08;50.21;98115.72;4919015;28;98383;-65
2023/12/22 01:31:33;;;;;;;;;;;;;;;11.07;50.37;98106.84;4909873;28;99734;-69
2023/12/22 01:34:00;;;;;;;;;;;;;;;11.07;50.29;98108.75;4924004;28;99138;-65
2023/12/22 01:36:26;;;;;;;;;;;;;;;11.06;50.59;98120.66;4922816;28;100022;-69
2023/12/22 01:38:52;;;;;;;;;;;;;;;11.06;50.45;98107.19;4902899;28;98419;-67
2023/12/22 01:41:18;;;;;;;;;;;;;;;11.03;50.40;98091.66;4923972;28;98359;-69
2023/12/22 01:43:44;;;;;;;;;;;;;;;11.03;50.56;98119.41;4953162;28;113390;-69
2023/12/22 01:46:10;;;;;;;;;;;;;;;11.04;50.30;98128.28;4914593;28;98234;-68
2023/12/22 01:48:36;;;;;;;;;;;;;;;11.02;50.13;98134.00;4931289;28;98141;-69
2023/12/22 01:51:03;;;;;;;;;;;;;;;11.02;50.44;98119.75;4908609;28;98298;-68
2023/12/22 01:53:29;;;;;;;;;;;;;;;11.01;50.42;98126.25;4938529;28;98499;-68
2023/12/22 01:55:55;;;;;;;;;;;;;;;11.02;50.42;98108.97;4943081;28;98240;-69
2023/12/22 01:58:23;;;;;;;;;;;;;;;11.02;50.41;98112.44;4923729;28;97958;-65
2023/12/22 02:00:49;;;;;;;;;;;;;;;11.03;50.40;98110.53;4924399;28;98091;-65
2023/12/22 02:03:15;;;;;;;;;;;;;;;11.01;50.50;98110.88;4953209;28;98365;-68
2023/12/22 02:05:47;;;;;;;;;;;;;;;11.01;50.10;98094.69;4905414;28;98255;-69
2023/12/22 02:08:13;;;;;;;;;;;;;;;11.00;50.27;98120.09;4924356;28;98368;-65
2023/12/22 02:10:39;;;;;;;;;;;;;;;11.01;50.29;98126.25;4936288;28;100254;-68
2023/12/22 02:13:05;;;;;;;;;;;;;;;10.99;50.38;98121.19;4907674;28;118962;-65
2023/12/22 02:15:32;;;;;;;;;;;;;;;11.00;50.50;98117.38;4941475;28;98234;-65
2023/12/22 02:18:07;;;;;;;;;;;;;;;11.00;50.56;98103.91;4923159;28;103112;-65
2023/12/22 02:20:33;;;;;;;;;;;;;;;11.00;50.27;98108.47;4939526;28;99901;-65
2023/12/22 02:22:59;;;;;;;;;;;;;;;10.99;50.33;98093.44;4935306;28;99565;-65
2023/12/22 02:25:25;;;;;;;;;;;;;;;10.98;50.34;98100.75;4912337;28;98311;-69
2023/12/22 02:27:56;;;;;;;;;;;;;;;10.99;50.42;98090.75;4937143;28;99742;-65
2023/12/22 02:30:59;;;;;;;;;;;;;;;10.98;50.29;98095.34;4939195;28;98116;-69
2023/12/22 02:33:25;;;;;;;;;;;;;;;10.96;50.41;98094.09;4955114;28;97960;-65
2023/12/22 02:35:51;;;;;;;;;;;;;;;10.94;50.35;98105.19;4936467;28;98052;-68
2023/12/22 02:38:17;;;;;;;;;;;;;;;10.92;50.60;98101.25;4906667;28;98164;-69
2023/12/22 02:40:44;;;;;;;;;;;;;;;10.88;50.60;98095.72;4936971;28;99809;-65
2023/12/22 02:43:10;;;;;;;;;;;;;;;10.86;50.47;98097.16;4918642;28;99683;-65
2023/12/22 02:45:36;;;;;;;;;;;;;;;10.85;49.98;98128.72;4910082;28;122983;-68
2023/12/22 02:48:02;;;;;;;;;;;;;;;10.83;50.06;98120.16;4938432;28;98237;-69
2023/12/22 02:50:28;;;;;;;;;;;;;;;10.81;50.19;98142.06;4906653;28;98125;-65
2023/12/22 02:52:54;;;;;;;;;;;;;;;10.80;50.09;98140.47;4923294;28;99254;-69
2023/12/22 02:55:20;;;;;;;;;;;;;;;10.80;50.41;98136.97;4889272;28;98484;-68
2023/12/22 02:57:46;;;;;;;;;;;;;;;10.78;50.10;98123.84;4889666;28;98148;-65
2023/12/22 03:00:12;;;;;;;;;;;;;;;10.78;50.04;98126.53;4914175;28;98433;-68
2023/12/22 03:02:38;;;;;;;;;;;;;;;10.77;50.05;98143.03;4937090;28;99228;-68
2023/12/22 03:05:05;;;;;;;;;;;;;;;10.75;50.16;98127.19;4917249;28;98092;-65
2023/12/22 03:07:31;;;;;;;;;;;;;;;10.75;50.21;98127.19;4899320;28;114913;-65
2023/12/22 03:09:57;;;;;;;;;;;;;;;10.74;49.90;98119.44;4915486;28;98076;-65
2023/12/22 03:12:23;;;;;;;;;;;;;;;10.74;50.04;98122.91;4923114;28;98424;-65
2023/12/22 03:14:49;;;;;;;;;;;;;;;10.71;50.05;98120.84;4940009;28;98716;-68
2023/12/22 03:17:15;;;;;;;;;;;;;;;10.73;49.95;98123.25;4916005;28;98416;-65
2023/12/22 03:19:41;;;;;;;;;;;;;;;10.72;50.08;98124.34;4950013;28;98016;-69
2023/12/22 03:22:07;;;;;;;;;;;;;;;10.71;50.28;98128.94;4920565;28;97866;-69
2023/12/22 03:24:34;;;;;;;;;;;;;;;10.69;50.20;98131.19;4938964;28;98114;-69
2023/12/22 03:27:00;;;;;;;;;;;;;;;10.68;50.07;98134.97;4904941;28;99876;-69
2023/12/22 03:29:26;;;;;;;;;;;;;;;10.68;50.37;98131.47;4914966;28;98269;-65
2023/12/22 03:31:52;;;;;;;;;;;;;;;10.66;50.39;98121.03;4948616;28;100763;-70
2023/12/22 03:34:18;;;;;;;;;;;;;;;10.67;50.35;98135.31;4921892;28;105897;-65
2023/12/22 03:36:48;;;;;;;;;;;;;;;10.65;50.37;98134.81;4927837;28;97992;-65
2023/12/22 03:39:17;;;;;;;;;;;;;;;10.62;50.43;98138.97;4936642;28;98106;-65
2023/12/22 03:41:43;;;;;;;;;;;;;;;10.61;50.32;98140.09;4937706;28;98493;-69
2023/12/22 03:44:09;;;;;;;;;;;;;;;10.59;50.17;98142.31;4922701;28;98609;-65
2023/12/22 03:46:35;;;;;;;;;;;;;;;10.57;50.20;98150.72;4932706;28;98328;-65
2023/12/22 03:49:00;;;;;;;;;;;;;;;10.56;50.55;98149.13;4902838;28;129343;-69
2023/12/22 03:51:27;;;;;;;;;;;;;;;10.56;50.09;98151.03;4949775;28;128847;-66
2023/12/22 03:53:53;;;;;;;;;;;;;;;10.54;50.21;98154.06;4920854;28;98166;-69
2023/12/22 03:56:19;;;;;;;;;;;;;;;10.54;50.25;98162.13;4923645;28;98211;-69
2023/12/22 03:58:45;;;;;;;;;;;;;;;10.53;50.46;98173.22;4938653;28;99884;-68
2023/12/22 04:01:14;;;;;;;;;;;;;;;10.52;50.07;98180.50;4940215;28;99426;-65
2023/12/22 04:03:40;;;;;;;;;;;;;;;10.51;50.15;98181.63;4943358;28;98139;-66
2023/12/22 04:06:06;;;;;;;;;;;;;;;10.50;50.11;98179.28;4944777;28;99995;-65
2023/12/22 04:08:32;;;;;;;;;;;;;;;10.50;50.14;98182.75;4891867;28;98452;-70
2023/12/22 04:10:58;;;;;;;;;;;;;;;10.48;50.37;98178.78;4941869;28;126893;-66
2023/12/22 04:13:24;;;;;;;;;;;;;;;10.48;50.55;98184.97;4908337;28;98127;-65
2023/12/22 04:15:51;;;;;;;;;;;;;;;10.47;50.12;98159.16;4910571;28;98254;-69
2023/12/22 04:18:17;;;;;;;;;;;;;;;10.46;50.21;98151.41;4905215;28;99905;-65
2023/12/22 04:20:43;;;;;;;;;;;;;;;10.44;50.10;98159.78;4940280;28;98170;-65
2023/12/22 04:23:09;;;;;;;;;;;;;;;10.43;50.47;98158.22;4923878;28;99349;-69
2023/12/22 04:25:35;;;;;;;;;;;;;;;10.42;50.35;98167.41;4913821;28;98479;-65
2023/12/22 04:28:01;;;;;;;;;;;;;;;10.41;50.48;98163.09;4922212;28;98066;-65
2023/12/22 04:30:27;;;;;;;;;;;;;;;10.40;50.58;98152.66;4940518;28;98097;-69
2023/12/22 04:32:53;;;;;;;;;;;;;;;10.38;50.60;98163.78;4924960;28;98460;-65
2023/12/22 04:35:19;;;;;;;;;;;;;;;10.38;49.94;98157.59;4957752;28;98126;-65
2023/12/22 04:37:45;;;;;;;;;;;;;;;10.36;49.98;98149.03;4935067;28;111559;-65
2023/12/22 04:40:11;;;;;;;;;;;;;;;10.36;50.06;98138.25;4909991;28;116225;-64
2023/12/22 04:42:37;;;;;;;;;;;;;;;10.34;50.38;98135.91;4911001;28;98246;-69
2023/12/22 04:45:03;;;;;;;;;;;;;;;10.34;50.16;98125.13;4913182;28;131361;-65
2023/12/22 04:47:29;;;;;;;;;;;;;;;10.32;50.42;98117.34;4940312;28;121986;-65
2023/12/22 04:49:55;;;;;;;;;;;;;;;10.32;50.34;98121.97;4939376;28;99033;-68
2023/12/22 04:52:21;;;;;;;;;;;;;;;10.30;49.96;98122.28;4907523;28;98504;-69
2023/12/22 04:54:48;;;;;;;;;;;;;;;10.29;50.46;98115.31;4908433;28;127901;-69
2023/12/22 04:57:13;;;;;;;;;;;;;;;10.30;50.54;98118.81;4937176;28;98569;-67
2023/12/22 04:59:39;;;;;;;;;;;;;;;10.29;49.97;98127.97;4925386;28;125792;-65
2023/12/22 05:02:06;;;;;;;;;;;;;;;10.28;50.17;98118.34;4911618;28;98345;-70
2023/12/22 05:04:32;;;;;;;;;;;;;;;10.28;50.54;98115.63;4924103;28;98077;-65
2023/12/22 05:06:58;;;;;;;;;;;;;;;10.28;49.96;98113.72;4922686;28;98267;-69
2023/12/22 05:09:25;;;;;;;;;;;;;;;10.28;50.23;98108.34;4942705;28;97814;-69
2023/12/22 05:11:51;;;;;;;;;;;;;;;10.28;50.59;98094.88;4937415;28;99134;-65
2023/12/22 05:14:17;;;;;;;;;;;;;;;10.27;50.06;98096.00;4921718;28;98945;-69
2023/12/22 05:16:43;;;;;;;;;;;;;;;10.28;50.40;98100.28;4921487;28;110168;-69
2023/12/22 05:19:09;;;;;;;;;;;;;;;10.32;50.44;98093.13;4939866;28;98193;-65
2023/12/22 05:21:35;;;;;;;;;;;;;;;10.39;50.23;98089.94;4941352;28;122609;-69
2023/12/22 05:24:01;;;;;;;;;;;;;;;10.45;50.01;98077.88;4911048;28;105445;-66
2023/12/22 05:26:30;;;;;;;;;;;;;;;10.50;50.42;98080.41;4924591;28;98013;-69
2023/12/22 05:28:56;;;;;;;;;;;;;;;10.55;50.30;98092.88;4937941;28;98193;-65
2023/12/22 05:31:23;;;;;;;;;;;;;;;10.58;50.21;98086.84;4894650;28;98585;-65
2023/12/22 05:33:48;;;;;;;;;;;;;;;10.61;50.47;98102.38;4919856;28;98175;-65
2023/12/22 05:36:14;;;;;;;;;;;;;;;10.64;50.13;98099.00;4904590;28;129255;-65
2023/12/22 05:38:40;;;;;;;;;;;;;;;10.65;50.24;98089.03;4923771;28;126775;-66
2023/12/22 05:41:07;;;;;;;;;;;;;;;10.67;50.64;98106.44;4921822;28;98214;-69
2023/12/22 05:43:33;;;;;;;;;;;;;;;10.68;50.30;98099.16;4905699;28;106511;-69
2023/12/22 05:45:59;;;;;;;;;;;;;;;10.69;50.19;98096.16;4909989;28;98095;-65
2023/12/22 05:48:27;;;;;;;;;;;;;;;10.71;50.17;98098.50;4937495;28;114398;-65
2023/12/22 05:50:53;;;;;;;;;;;;;;;10.71;50.28;98096.59;4919115;28;98048;-69
2023/12/22 05:53:20;;;;;;;;;;;;;;;10.71;50.17;98106.59;4956430;28;98771;-66
2023/12/22 05:55:46;;;;;;;;;;;;;;;10.71;50.49;98101.22;4909195;28;98211;-65
2023/12/22 05:58:12;;;;;;;;;;;;;;;10.71;50.07;98096.59;4957582;28;98428;-65
2023/12/22 06:00:38;;;;;;;;;;;;;;;10.71;50.11;98095.81;4953524;28;98637;-69
2023/12/22 06:03:04;;;;;;;;;;;;;;;10.69;50.46;98109.63;4923201;28;98927;-65
2023/12/22 06:05:30;;;;;;;;;;;;;;;10.69;50.20;98114.19;4948770;28;104817;-65
2023/12/22 06:07:56;;;;;;;;;;;;;;;10.68;50.25;98137.66;4929910;28;98226;-69
2023/12/22 06:10:22;;;;;;;;;;;;;;;10.69;50.46;98131.19;4910102;28;105068;-69
2023/12/22 06:12:48;;;;;;;;;;;;;;;10.67;50.67;98122.63;4938323;28;98056;-68
2023/12/22 06:15:14;;;;;;;;;;;;;;;10.68;50.06;98128.78;4925651;28;98745;-65
2023/12/22 06:17:40;;;;;;;;;;;;;;;10.68;50.35;98142.25;4935424;28;99678;-65
2023/12/22 06:20:07;;;;;;;;;;;;;;;10.67;50.19;98133.41;4939372;28;113766;-69
2023/12/22 06:22:32;;;;;;;;;;;;;;;10.67;50.47;98133.41;4918591;28;120372;-65
2023/12/22 06:24:59;;;;;;;;;;;;;;;10.66;50.12;98121.03;4915869;28;103999;-68
2023/12/22 06:27:25;;;;;;;;;;;;;;;10.67;50.19;98121.84;4952787;28;98001;-68
2023/12/22 06:29:51;;;;;;;;;;;;;;;10.66;50.42;98128.34;4923503;28;98014;-69
2023/12/22 06:32:17;;;;;;;;;;;;;;;10.66;50.46;98121.03;4938147;28;100138;-69
2023/12/22 06:34:43;;;;;;;;;;;;;;;10.66;50.51;98121.03;4907015;28;115702;-65
2023/12/22 06:37:10;;;;;;;;;;;;;;;10.66;50.10;98117.56;4923583;28;99424;-68
2023/12/22 06:39:36;;;;;;;;;;;;;;;10.66;50.22;98133.72;4928596;28;98106;-69
2023/12/22 06:42:05;;;;;;;;;;;;;;;10.65;50.45;98141.03;4938484;28;114321;-69
2023/12/22 06:44:31;;;;;;;;;;;;;;;10.65;50.38;98124.88;4939271;28;98264;-66
2023/12/22 06:46:57;;;;;;;;;;;;;;;10.66;50.36;98141.81;4948346;27;98201;-68
2023/12/22 06:49:23;;;;;;;;;;;;;;;10.64;50.15;98119.78;4936028;28;98340;-68
2023/12/22 06:51:49;;;;;;;;;;;;;;;10.65;50.36;98153.69;4949805;28;113780;-64
2023/12/22 06:54:15;;;;;;;;;;;;;;;10.64;50.03;98133.25;4894440;28;98998;-69
2023/12/22 06:56:41;;;;;;;;;;;;;;;10.65;50.36;98142.91;4938187;27;99057;-65
2023/12/22 06:59:10;;;;;;;;;;;;;;;10.64;50.29;98162.88;4899020;28;98648;-69
2023/12/22 07:01:36;;;;;;;;;;;;;;;10.64;50.39;98165.56;4905162;28;99104;-65
2023/12/22 07:04:03;;;;;;;;;;;;;;;10.64;50.39;98181.75;4934839;28;129142;-69
2023/12/22 07:06:30;;;;;;;;;;;;;;;10.63;50.16;98185.56;4921455;28;97999;-69
2023/12/22 07:09:11;;;;;;;;;;;;;;;10.62;50.36;98174.00;4920208;28;98248;-65
2023/12/22 07:11:37;;;;;;;;;;;;;;;10.62;50.50;98181.28;4920913;28;98045;-65
2023/12/22 07:14:04;;;;;;;;;;;;;;;10.60;50.30;98186.97;4899530;28;109514;-70
2023/12/22 07:16:30;;;;;;;;;;;;;;;10.60;50.10;98189.69;4915848;28;100952;-70
2023/12/22 07:18:55;;;;;;;;;;;;;;;10.60;50.24;98186.97;4949289;28;98360;-69
2023/12/22 07:21:22;;;;;;;;;;;;;;;10.60;50.11;98186.19;4937019;28;130565;-70
2023/12/22 07:23:47;;;;;;;;;;;;;;;10.59;50.05;98185.41;4918887;28;105932;-69
2023/12/22 07:26:13;;;;;;;;;;;;;;;10.57;50.37;98199.22;4897839;28;125759;-65
2023/12/22 07:28:40;;;;;;;;;;;;;;;10.57;50.29;98193.81;4902487;28;98061;-69
2023/12/22 07:31:06;;;;;;;;;;;;;;;10.57;50.41;98201.09;4929272;28;98169;-65
2023/12/22 07:33:32;;;;;;;;;;;;;;;10.55;50.28;98193.34;4908949;28;128328;-69
2023/12/22 07:35:58;;;;;;;;;;;;;;;10.56;50.14;98194.91;4942929;28;115378;-65
2023/12/22 07:38:24;;;;;;;;;;;;;;;10.56;49.83;98202.22;4935967;28;122613;-69
2023/12/22 07:40:50;;;;;;;;;;;;;;;10.56;50.15;98191.44;4908925;28;98134;-66
2023/12/22 07:43:16;;;;;;;;;;;;;;;10.58;49.98;98191.91;4949290;28;98060;-65
2023/12/22 07:45:42;;;;;;;;;;;;;;;10.58;50.60;98197.31;4906842;28;98059;-69
2023/12/22 07:48:08;;;;;;;;;;;;;;;10.60;50.27;98196.97;4934955;28;99307;-65
2023/12/22 07:50:34;;;;;;;;;;;;;;;10.62;50.08;98206.31;4935334;28;115395;-65
2023/12/22 07:53:00;;;;;;;;;;;;;;;10.63;50.26;98224.06;4923744;28;99384;-69
2023/12/22 07:55:26;;;;;;;;;;;;;;;10.66;50.31;98225.34;4904726;28;100353;-65
2023/12/22 07:57:52;;;;;;;;;;;;;;;10.67;49.98;98221.53;4923989;28;99125;-65
2023/12/22 08:00:18;;;;;;;;;;;;;;;10.72;49.93;98229.41;4916574;28;99025;-69
2023/12/22 08:02:45;;;;;;;;;;;;;;;10.79;50.14;98200.06;4923982;28;98392;-65
2023/12/22 08:05:12;;;;;;;;;;;;;;;10.89;49.74;98202.44;4919001;28;98363;-65
2023/12/22 08:07:39;;;;;;;;;;;;;;;10.98;49.64;98229.34;4941379;28;98395;-65
2023/12/22 08:10:06;;;;;;;;;;;;;;;10.99;49.63;98239.00;4907900;28;98072;-65
2023/12/22 08:12:32;;;;;;;;;;;;;;;10.96;50.08;98223.47;4895016;28;98501;-69
2023/12/22 08:14:58;;;;;;;;;;;;;;;10.94;49.89;98241.88;4932278;28;99221;-68
2023/12/22 08:17:24;;;;;;;;;;;;;;;10.97;49.93;98233.16;4935270;28;98095;-68
2023/12/22 08:19:50;;;;;;;;;;;;;;;11.00;49.94;98238.69;4911956;28;113664;-65
2023/12/22 08:22:16;;;;;;;;;;;;;;;11.02;49.76;98255.31;4937304;28;98104;-69
2023/12/22 08:24:43;;;;;;;;;;;;;;;11.06;50.08;98250.06;4915051;28;98199;-68
2023/12/22 08:27:09;;;;;;;;;;;;;;;11.09;49.76;98251.34;4907173;28;98247;-69
2023/12/22 08:29:35;;;;;;;;;;;;;;;11.09;49.86;98260.22;4939058;28;98643;-69
2023/12/22 08:32:01;;;;;;;;;;;;;;;11.06;49.90;98267.03;4922692;28;98897;-65
2023/12/22 08:34:28;;;;;;;;;;;;;;;11.02;49.81;98273.41;4935670;28;98264;-65
2023/12/22 08:36:54;;;;;;;;;;;;;;;11.00;49.98;98275.63;4936425;28;98112;-68
2023/12/22 08:39:20;;;;;;;;;;;;;;;11.06;49.97;98291.31;4918513;28;99825;-65
2023/12/22 08:41:46;;;;;;;;;;;;;;;11.17;49.75;98275.56;4909524;28;102836;-69
2023/12/22 08:44:14;;;;;;;;;;;;;;;11.28;49.73;98294.88;4921186;28;99098;-69
2023/12/22 08:46:40;;;;;;;;;;;;;;;11.26;49.75;98299.81;4920377;28;98087;-69
2023/12/22 08:49:07;;;;;;;;;;;;;;;11.36;49.65;98302.16;4936885;28;100330;-68
2023/12/22 08:51:36;;;;;;;;;;;;;;;11.67;49.34;98307.22;4939576;28;99462;-68
2023/12/22 08:54:02;;;;;;;;;;;;;;;12.25;48.52;98294.00;4933868;28;98435;-68
2023/12/22 08:56:28;;;;;;;;;;;;;;;12.65;48.48;98288.84;4921668;28;98870;-68
2023/12/22 08:58:55;;;;;;;;;;;;;;;12.55;48.82;98302.78;4918000;28;99333;-68
2023/12/22 09:01:21;;;;;;;;;;;;;;;12.61;49.23;98301.44;4905732;28;100690;-68
2023/12/22 09:03:48;;;;;;;;;;;;;;;12.78;48.72;98300.50;4933128;28;98053;-68
2023/12/22 09:06:21;;;;;;;;;;;;;;;12.79;49.09;98307.50;4921861;28;98468;-65
2023/12/22 09:08:48;;;;;;;;;;;;;;;12.80;48.90;98328.00;4923912;28;98223;-68
2023/12/22 09:11:15;;;;;;;;;;;;;;;12.89;48.88;98330.59;4938151;28;98924;-70
2023/12/22 09:13:42;;;;;;;;;;;;;;;13.16;48.79;98321.09;4932819;28;99227;-68
2023/12/22 09:16:08;;;;;;;;;;;;;;;13.29;48.69;98328.16;4940399;28;98235;-66
2023/12/22 09:18:34;;;;;;;;;;;;;;;13.16;48.76;98329.19;4939718;28;112890;-66
2023/12/22 09:21:00;;;;;;;;;;;;;;;13.23;48.83;98326.78;4903027;28;98429;-70
2023/12/22 09:23:29;;;;;;;;;;;;;;;13.17;49.25;98339.72;4944805;28;116174;-66
2023/12/22 09:25:55;;;;;;;;;;;;;;;13.02;49.08;98345.75;4936243;28;99584;-70
2023/12/22 09:28:21;;;;;;;;;;;;;;;12.87;49.36;98349.88;4930801;28;120756;-66
2023/12/22 09:30:47;;;;;;;;;;;;;;;12.82;49.61;98350.09;4945969;28;98262;-70
2023/12/22 09:33:13;;;;;;;;;;;;;;;12.82;49.23;98358.19;4917831;28;98275;-66
2023/12/22 09:35:41;;;;;;;;;;;;;;;12.92;49.61;98367.78;4920137;28;98281;-70
2023/12/22 09:38:09;;;;;;;;;;;;;;;13.17;48.77;98355.16;4920624;28;98132;-70
2023/12/22 09:40:36;;;;;;;;;;;;;;;13.36;48.99;98355.44;4918072;28;98198;-66
2023/12/22 09:43:02;;;;;;;;;;;;;;;13.26;49.16;98345.84;4903674;28;98375;-67
2023/12/22 09:45:29;;;;;;;;;;;;;;;13.30;48.84;98358.69;4935695;28;99529;-67
2023/12/22 09:47:55;;;;;;;;;;;;;;;13.42;48.94;98364.91;4921502;28;100218;-67
2023/12/22 09:50:21;;;;;;;;;;;;;;;13.40;49.28;98363.66;4949881;28;98110;-67
2023/12/22 09:52:47;;;;;;;;;;;;;;;13.41;49.21;98366.03;4917574;28;127092;-67
2023/12/22 09:55:13;;;;;;;;;;;;;;;13.46;49.02;98373.94;4939400;28;98137;-67
2023/12/22 09:57:39;;;;;;;;;;;;;;;13.45;49.29;98377.78;4913857;28;97959;-67
2023/12/22 10:00:09;;;;;;;;;;;;;;;13.36;49.42;98393.31;4930961;28;109180;-67
2023/12/22 10:02:37;;;;;;;;;;;;;;;13.27;49.55;98389.91;4913917;28;99323;-66
2023/12/22 10:05:03;;;;;;;;;;;;;;;13.22;49.39;98371.94;4936792;28;99257;-67
2023/12/22 10:07:30;;;;;;;;;;;;;;;13.25;49.25;98384.06;4906440;28;98365;-64
2023/12/22 10:10:00;;;;;;;;;;;;;;;13.22;49.46;98384.69;4936704;28;98004;-67
2023/12/22 10:12:27;;;;;;;;;;;;;;;13.17;49.39;98391.09;4902325;28;98915;-67
2023/12/22 10:14:53;;;;;;;;;;;;;;;13.18;49.29;98392.69;4914951;28;98271;-67
2023/12/22 10:17:19;;;;;;;;;;;;;;;13.17;49.40;98401.13;4918563;28;98218;-67
2023/12/22 10:19:45;;;;;;;;;;;;;;;13.15;49.23;98381.72;4914809;28;97893;-64
2023/12/22 10:22:11;;;;;;;;;;;;;;;13.24;49.50;98407.63;4914777;28;107111;-67
2023/12/22 10:24:47;;;;;;;;;;;;;;;13.22;49.34;98377.34;4932325;28;110802;-64
2023/12/22 10:27:14;;;;;;;;;;;;;;;13.31;49.17;98380.00;4926300;28;98432;-64
2023/12/22 10:29:41;;;;;;;;;;;;;;;13.41;48.89;98395.03;4935143;28;98155;-67
2023/12/22 10:32:08;;;;;;;;;;;;;;;13.48;49.20;98379.81;4904923;28;98267;-67
2023/12/22 10:34:34;;;;;;;;;;;;;;;13.70;48.95;98411.06;4903748;28;98366;-64
2023/12/22 10:37:00;;;;;;;;;;;;;;;13.94;48.33;98404.88;4896492;28;102824;-67
2023/12/22 10:39:37;;;;;;;;;;;;;;;14.04;48.90;98405.56;4912181;28;98358;-65
2023/12/22 10:42:03;;;;;;;;;;;;;;;14.07;48.61;98404.84;4930021;28;98243;-65
2023/12/22 10:44:29;;;;;;;;;;;;;;;14.20;48.59;98387.47;4900824;28;105818;-68
2023/12/22 10:46:56;;;;;;;;;;;;;;;14.27;48.84;98398.53;4948904;28;99038;-65
2023/12/22 10:49:22;;;;;;;;;;;;;;;14.35;48.41;98380.56;4938326;28;98451;-68
2023/12/22 10:51:49;;;;;;;;;;;;;;;14.26;48.93;98380.69;4909726;28;98083;-69
2023/12/22 10:54:15;;;;;;;;;;;;;;;14.14;48.89;98399.66;4921830;28;98288;-66
2023/12/22 10:56:41;;;;;;;;;;;;;;;14.02;49.33;98402.38;4918552;28;99090;-69
2023/12/22 10:59:08;;;;;;;;;;;;;;;13.94;49.38;98404.06;4934148;28;100361;-66
2023/12/22 11:01:40;;;;;;;;;;;;;;;13.81;49.03;98399.81;4945499;28;100974;-69
2023/12/22 11:04:08;;;;;;;;;;;;;;;13.63;49.58;98399.22;4949999;28;98311;-69
2023/12/22 11:06:36;;;;;;;;;;;;;;;13.49;49.44;98397.63;4933763;28;98368;-69
2023/12/22 11:09:06;;;;;;;;;;;;;;;13.42;49.66;98400.09;4925352;28;98594;-69
2023/12/22 11:11:33;;;;;;;;;;;;;;;13.56;49.23;98401.69;4902125;28;99355;-66
2023/12/22 11:14:03;;;;;;;;;;;;;;;13.49;49.52;98396.84;4927376;28;98479;-66
2023/12/22 11:16:29;;;;;;;;;;;;;;;13.32;49.72;98424.84;4909638;28;98366;-69
2023/12/22 11:18:56;;;;;;;;;;;;;;;13.27;49.45;98385.28;4906999;28;98459;-65
2023/12/22 11:21:23;;;;;;;;;;;;;;;13.30;49.30;98377.63;4940040;28;98243;-69
2023/12/22 11:23:51;;;;;;;;;;;;;;;13.27;49.36;98406.13;4936467;28;98392;-69
2023/12/22 11:26:18;;;;;;;;;;;;;;;13.15;49.60;98404.16;4935920;28;100167;-65
2023/12/22 11:28:46;;;;;;;;;;;;;;;13.06;49.50;98419.69;4909204;28;98504;-65
2023/12/22 11:31:12;;;;;;;;;;;;;;;13.01;49.43;98436.91;4938227;28;99936;-65
2023/12/22 11:33:46;;;;;;;;;;;;;;;12.92;49.79;98422.66;4933362;28;98218;-69
2023/12/22 11:36:12;;;;;;;;;;;;;;;12.88;49.75;98408.22;4902260;28;99788;-69
2023/12/22 11:38:41;;;;;;;;;;;;;;;12.91;49.59;98402.16;4921887;28;101867;-69
2023/12/22 11:41:19;;;;;;;;;;;;;;;13.05;49.51;98390.25;4936739;28;98404;-66
2023/12/22 11:43:45;;;;;;;;;;;;;;;12.99;49.18;98398.59;4949628;28;97862;-68
2023/12/22 11:46:11;;;;;;;;;;;;;;;12.97;49.46;98402.75;4903915;28;98138;-69
2023/12/22 11:48:37;;;;;;;;;;;;;;;12.90;49.37;98410.63;4937533;28;98274;-65
2023/12/22 11:51:13;;;;;;;;;;;;;;;12.94;49.52;98408.81;4933848;28;100407;-69
2023/12/22 11:53:39;;;;;;;;;;;;;;;12.97;49.22;98400.84;4923858;28;99145;-69
2023/12/22 11:56:08;;;;;;;;;;;;;;;12.92;49.50;98398.31;4918979;28;106267;-69
2023/12/22 11:58:41;;;;;;;;;;;;;;;12.87;49.48;98395.06;4920582;28;101763;-69
2023/12/22 12:01:11;;;;;;;;;;;;;;;12.86;49.35;98390.78;4951854;28;98506;-65
2023/12/22 12:03:41;;;;;;;;;;;;;;;12.90;49.71;98395.19;4923869;28;98264;-65
2023/12/22 12:06:25;;;;;;;;;;;;;;;12.95;49.22;98384.16;4920269;28;98952;-69
2023/12/22 12:08:54;;;;;;;;;;;;;;;13.08;49.43;98382.28;4949093;28;99439;-69
2023/12/22 12:11:21;;;;;;;;;;;;;;;13.15;49.46;98392.56;4935688;28;98348;-65
2023/12/22 12:13:47;;;;;;;;;;;;;;;13.18;49.00;98384.56;4888933;28;98135;-69
2023/12/22 12:16:14;;;;;;;;;;;;;;;13.29;49.37;98387.66;4905203;28;98254;-69
2023/12/22 12:18:40;;;;;;;;;;;;;;;13.32;49.31;98383.47;4922069;28;100327;-69
2023/12/22 12:21:10;;;;;;;;;;;;;;;13.30;49.27;98391.94;4908970;28;97991;-66
2023/12/22 12:23:36;;;;;;;;;;;;;;;13.28;49.13;98391.47;4903407;28;97877;-69
2023/12/22 12:26:03;;;;;;;;;;;;;;;13.21;49.55;98396.63;4913094;28;114422;-69
2023/12/22 12:28:31;;;;;;;;;;;;;;;13.11;49.52;98389.72;4935269;28;98355;-69
2023/12/22 12:31:02;;;;;;;;;;;;;;;13.07;49.59;98401.53;4900898;28;99284;-65
2023/12/22 12:33:28;;;;;;;;;;;;;;;12.99;49.52;98386.97;4904845;28;98161;-68
2023/12/22 12:36:04;;;;;;;;;;;;;;;12.90;49.80;98394.41;4932026;28;99777;-69
2023/12/22 12:38:55;;;;;;;;;;;;;;;12.80;49.57;98398.28;4941195;28;99363;-68
2023/12/22 12:41:31;;;;;;;;;;;;;;;12.72;49.99;98383.72;4923475;28;98133;-65
2023/12/22 12:44:00;;;;;;;;;;;;;;;12.64;49.94;98352.16;4933044;28;99190;-65